Airport ICAO


22:19 UTC

10°C


An affordable passengers' Moving Map for your aircraft. Made for the iPad and the iPhone
More information here

EGLL Heathrow


London UNITED KINGDOM   VFR


METAR EGLL 132150Z AUTO 19007KT 160V250 9999 NCD 10/08 Q1025 NOSIG 0h29min

TAF EGLL 131703Z 1318/1424 19008KT 9999 FEW030 TEMPO 1420/1424 8000 BKN014 5h16min





NOTAMS

OPEN